createdAt,value
2019-03-22T00:00:27.181Z,99.90
2019-03-22T00:02:56.824Z,99.90
2019-03-22T00:05:26.432Z,99.90
2019-03-22T00:07:56.086Z,99.90
2019-03-22T00:10:25.705Z,99.90
2019-03-22T00:12:55.826Z,99.90
2019-03-22T00:15:25.622Z,99.90
2019-03-22T00:17:55.537Z,99.90
2019-03-22T00:20:25.375Z,99.90
2019-03-22T00:22:54.968Z,99.90
2019-03-22T00:25:24.612Z,99.90
2019-03-22T00:27:54.391Z,99.90
2019-03-22T00:30:24.024Z,99.90
2019-03-22T00:32:54.180Z,99.90
2019-03-22T00:35:23.999Z,99.90
2019-03-22T00:37:53.694Z,99.90
2019-03-22T00:40:23.336Z,99.90
2019-03-22T00:42:52.958Z,99.90
2019-03-22T00:45:22.608Z,99.90
2019-03-22T00:47:52.325Z,99.90
2019-03-22T00:50:21.966Z,99.90
2019-03-22T00:52:51.581Z,99.90
2019-03-22T00:55:21.369Z,99.90
2019-03-22T00:57:50.992Z,99.90
2019-03-22T01:00:20.646Z,99.90
2019-03-22T01:02:50.361Z,99.90
2019-03-22T01:05:20.087Z,99.90
2019-03-22T01:07:49.849Z,99.90
2019-03-22T01:10:19.494Z,99.90
2019-03-22T01:12:49.112Z,99.90
2019-03-22T01:15:18.763Z,99.90
2019-03-22T01:17:48.515Z,99.90
2019-03-22T01:20:18.249Z,99.90
2019-03-22T01:22:47.867Z,99.90
2019-03-22T01:25:17.854Z,99.90
2019-03-22T01:27:47.573Z,99.90
2019-03-22T01:30:18.355Z,99.90
2019-03-22T01:32:47.974Z,99.90
2019-03-22T01:35:17.616Z,99.90
2019-03-22T01:37:47.305Z,99.90
2019-03-22T01:40:17.186Z,99.90
2019-03-22T01:43:06.149Z,99.90
2019-03-22T01:45:35.796Z,99.90
2019-03-22T01:48:05.486Z,99.90
2019-03-22T01:50:35.196Z,99.90
2019-03-22T01:53:04.817Z,99.90
2019-03-22T01:55:34.477Z,99.90
2019-03-22T01:58:04.372Z,99.90
2019-03-22T02:00:34.093Z,99.90
2019-03-22T02:03:03.716Z,99.90
2019-03-22T02:05:33.361Z,99.90
2019-03-22T02:08:03.253Z,99.90
2019-03-22T02:10:32.905Z,99.90
2019-03-22T02:13:02.521Z,99.90
2019-03-22T02:15:32.172Z,99.90
2019-03-22T02:18:02.001Z,99.90
2019-03-22T02:20:31.654Z,99.90
2019-03-22T02:23:01.279Z,99.90
2019-03-22T02:25:30.940Z,99.90
2019-03-22T02:28:04.464Z,99.90
2019-03-22T02:30:31.831Z,99.90
2019-03-22T02:33:01.527Z,99.90
2019-03-22T02:35:31.182Z,99.90
2019-03-22T02:38:00.802Z,99.90
2019-03-22T02:40:30.446Z,99.90
2019-03-22T02:43:00.072Z,99.90
2019-03-22T02:45:29.762Z,99.90
2019-03-22T02:47:59.423Z,99.90
2019-03-22T02:50:29.062Z,99.90
2019-03-22T02:52:58.681Z,99.90
2019-03-22T02:55:28.375Z,99.90
2019-03-22T02:57:58.019Z,99.90
2019-03-22T03:00:27.708Z,99.90
2019-03-22T03:02:57.354Z,99.90
2019-03-22T03:05:26.981Z,99.90
2019-03-22T03:07:56.627Z,99.90
2019-03-22T03:10:26.349Z,99.90
2019-03-22T03:12:55.992Z,99.90
2019-03-22T03:15:25.620Z,99.90
2019-03-22T03:17:55.268Z,99.90
2019-03-22T03:20:24.888Z,99.90
2019-03-22T03:22:54.546Z,99.90
2019-03-22T03:25:24.169Z,99.90
2019-03-22T03:27:53.960Z,99.90
2019-03-22T03:30:23.592Z,99.90
2019-03-22T03:32:53.229Z,99.90
2019-03-22T03:35:22.878Z,99.90
2019-03-22T03:37:52.594Z,99.90
2019-03-22T03:40:22.213Z,99.90
2019-03-22T03:42:51.914Z,99.90
2019-03-22T03:45:37.240Z,99.90
2019-03-22T03:48:09.717Z,99.90
2019-03-22T03:50:39.963Z,99.90
2019-03-22T03:53:10.015Z,99.90
2019-03-22T03:55:39.714Z,99.90
2019-03-22T03:58:09.548Z,99.90
2019-03-22T04:00:39.125Z,99.90
2019-03-22T04:03:08.772Z,99.90
2019-03-22T04:05:38.402Z,99.90
2019-03-22T04:08:08.052Z,99.90
2019-03-22T04:10:37.677Z,99.90
2019-03-22T04:13:07.326Z,99.90
2019-03-22T04:15:37.024Z,99.90
2019-03-22T04:18:06.787Z,99.90
2019-03-22T04:20:36.394Z,99.90
2019-03-22T04:23:06.044Z,99.90
2019-03-22T04:25:35.926Z,99.90
2019-03-22T04:28:05.664Z,99.90
2019-03-22T04:30:35.285Z,99.90
2019-03-22T04:33:06.630Z,99.90
2019-03-22T04:35:36.254Z,99.90
2019-03-22T04:38:05.970Z,99.90
2019-03-22T04:40:35.594Z,99.90
2019-03-22T04:43:05.484Z,99.90
2019-03-22T04:45:36.644Z,99.90
2019-03-22T04:48:15.120Z,99.90
2019-03-22T04:50:46.181Z,99.90
2019-03-22T04:53:18.741Z,99.90
2019-03-22T04:55:51.513Z,99.90
2019-03-22T04:58:22.893Z,99.90
2019-03-22T05:00:54.960Z,99.90
2019-03-22T05:03:26.445Z,99.90
2019-03-22T05:05:58.312Z,99.90
2019-03-22T05:08:30.968Z,99.90
2019-03-22T05:11:02.145Z,99.90
2019-03-22T05:13:34.225Z,99.90
2019-03-22T05:16:05.076Z,99.90
2019-03-22T05:18:35.372Z,99.90
2019-03-22T05:21:07.746Z,99.90
2019-03-22T05:23:38.604Z,99.90
2019-03-22T05:26:09.075Z,99.90
2019-03-22T05:28:39.375Z,99.90
2019-03-22T05:31:12.097Z,99.90
2019-03-22T05:33:41.745Z,99.90
2019-03-22T05:36:23.373Z,99.90
2019-03-22T05:38:53.015Z,99.90
2019-03-22T05:41:22.645Z,99.90
2019-03-22T05:43:52.392Z,99.90
2019-03-22T05:46:22.021Z,99.90
2019-03-22T05:48:51.665Z,99.90
2019-03-22T05:51:21.287Z,99.90
2019-03-22T05:53:50.928Z,99.90
2019-03-22T05:56:20.552Z,99.90
2019-03-22T05:58:50.284Z,99.90
2019-03-22T06:01:19.911Z,99.90
2019-03-22T06:03:49.561Z,99.90
2019-03-22T06:06:19.180Z,99.90
2019-03-22T06:08:49.198Z,99.90
2019-03-22T06:11:18.853Z,99.90
2019-03-22T06:13:51.468Z,99.90
2019-03-22T06:16:21.140Z,99.90
2019-03-22T06:18:54.278Z,99.90
2019-03-22T06:21:24.450Z,99.90
2019-03-22T06:23:54.092Z,99.90
2019-03-22T06:26:23.737Z,99.90
2019-03-22T06:28:53.424Z,99.90
2019-03-22T06:31:23.049Z,99.90
2019-03-22T06:33:52.711Z,99.90
2019-03-22T06:36:24.176Z,99.90
2019-03-22T06:38:53.797Z,99.90
2019-03-22T06:41:23.440Z,99.90
2019-03-22T06:43:53.065Z,99.90
2019-03-22T06:46:22.721Z,99.90
2019-03-22T06:48:53.670Z,99.90
2019-03-22T06:51:23.317Z,99.90
2019-03-22T06:53:52.947Z,99.90
2019-03-22T06:56:22.647Z,99.90
2019-03-22T06:58:52.258Z,99.90
2019-03-22T07:01:21.905Z,99.90
2019-03-22T07:03:51.533Z,99.90
2019-03-22T07:06:21.186Z,99.90
2019-03-22T07:08:50.810Z,99.90
2019-03-22T07:11:20.454Z,99.90
2019-03-22T07:13:50.076Z,99.90
2019-03-22T07:16:19.728Z,99.90
2019-03-22T07:18:49.436Z,99.90
2019-03-22T07:21:19.082Z,99.90
2019-03-22T07:23:48.773Z,99.90
2019-03-22T07:26:18.428Z,99.90
2019-03-22T07:28:48.065Z,99.90
2019-03-22T07:31:17.760Z,99.90
2019-03-22T07:33:50.155Z,99.90
2019-03-22T07:36:19.870Z,99.90
2019-03-22T07:38:49.499Z,99.90
2019-03-22T07:41:19.249Z,99.90
2019-03-22T07:43:49.047Z,96.90
2019-03-22T07:46:19.338Z,95.50
2019-03-22T07:48:49.156Z,95.50
2019-03-22T07:51:18.944Z,95.00
2019-03-22T07:53:48.608Z,94.30
2019-03-22T07:56:18.310Z,95.30
2019-03-22T07:58:48.068Z,90.10
2019-03-22T08:01:17.781Z,91.60
2019-03-22T08:03:47.689Z,91.80
2019-03-22T08:06:17.332Z,88.00
2019-03-22T08:08:47.580Z,79.40
2019-03-22T08:11:17.228Z,79.30
2019-03-22T08:13:46.874Z,75.90
2019-03-22T08:16:16.594Z,76.80
2019-03-22T08:18:46.213Z,72.80
2019-03-22T08:21:15.883Z,72.20
2019-03-22T08:23:45.933Z,72.90
2019-03-22T08:26:16.000Z,73.20
2019-03-22T08:28:45.582Z,72.60
2019-03-22T08:31:16.951Z,69.80
2019-03-22T08:33:46.584Z,70.50
2019-03-22T08:36:16.357Z,70.40
2019-03-22T08:38:46.034Z,67.50
2019-03-22T08:41:15.685Z,67.90
2019-03-22T08:43:46.113Z,67.60
2019-03-22T08:46:15.865Z,66.60
2019-03-22T08:48:45.510Z,63.80
2019-03-22T08:51:15.185Z,62.80
2019-03-22T08:53:54.671Z,63.70
2019-03-22T08:56:16.049Z,59.50
2019-03-22T08:58:46.412Z,59.50
2019-03-22T09:01:16.041Z,62.30
2019-03-22T09:03:45.630Z,59.60
2019-03-22T09:06:15.306Z,59.10
2019-03-22T09:08:47.886Z,61.20
2019-03-22T09:11:18.283Z,62.60
2019-03-22T09:13:47.971Z,60.30
2019-03-22T09:16:17.610Z,60.60
2019-03-22T09:18:47.349Z,59.10
2019-03-22T09:21:16.966Z,57.60
2019-03-22T09:23:46.605Z,57.80
2019-03-22T09:26:16.245Z,56.40
2019-03-22T09:28:45.980Z,57.00
2019-03-22T09:31:15.699Z,54.80
2019-03-22T09:33:45.437Z,54.40
2019-03-22T09:36:15.118Z,55.10
2019-03-22T09:38:44.760Z,54.40
2019-03-22T09:41:14.406Z,54.20
2019-03-22T09:43:44.171Z,54.10
2019-03-22T09:46:13.844Z,53.40
2019-03-22T09:48:43.737Z,55.40
2019-03-22T09:51:14.709Z,55.10
2019-03-22T09:53:45.660Z,54.00
2019-03-22T09:56:15.307Z,54.20
2019-03-22T09:58:45.032Z,54.90
2019-03-22T10:01:23.554Z,53.40
2019-03-22T10:03:46.073Z,52.80
2019-03-22T10:06:15.699Z,52.70
2019-03-22T10:08:45.416Z,52.40
2019-03-22T10:11:15.058Z,52.00
2019-03-22T10:13:48.211Z,52.50
2019-03-22T10:16:17.122Z,49.80
2019-03-22T10:18:47.003Z,49.70
2019-03-22T10:21:22.284Z,50.00
2019-03-22T10:23:48.059Z,48.70
2019-03-22T10:26:17.843Z,49.30
2019-03-22T10:28:47.686Z,48.60
2019-03-22T10:31:17.342Z,50.50
2019-03-22T10:33:47.135Z,49.90
2019-03-22T10:36:16.769Z,50.00
2019-03-22T10:38:46.520Z,50.50
2019-03-22T10:41:16.144Z,49.90
2019-03-22T10:43:45.813Z,49.60
2019-03-22T10:46:15.450Z,49.40
2019-03-22T10:48:45.131Z,48.50
2019-03-22T10:51:14.737Z,48.30
2019-03-22T10:53:44.945Z,48.70
2019-03-22T10:56:14.531Z,49.30
2019-03-22T10:58:44.193Z,48.60
2019-03-22T11:01:14.363Z,49.40
2019-03-22T11:03:44.019Z,49.30
2019-03-22T11:06:13.764Z,48.80
2019-03-22T11:08:43.487Z,49.70
2019-03-22T11:11:13.161Z,48.40
2019-03-22T11:13:42.884Z,48.90
2019-03-22T11:16:12.600Z,50.10
2019-03-22T11:18:42.255Z,49.10
2019-03-22T11:21:11.897Z,48.10
2019-03-22T11:23:41.659Z,48.20
2019-03-22T11:26:11.353Z,49.00
2019-03-22T11:28:41.025Z,47.40
2019-03-22T11:31:10.658Z,48.70
2019-03-22T11:33:41.116Z,48.10
2019-03-22T11:36:11.452Z,48.10
2019-03-22T11:38:43.014Z,48.50
2019-03-22T11:41:12.812Z,48.80
2019-03-22T11:43:42.476Z,48.90
2019-03-22T11:46:12.289Z,47.20
2019-03-22T11:48:41.922Z,49.90
2019-03-22T11:51:11.580Z,48.60
2019-03-22T11:53:41.308Z,49.00
2019-03-22T11:56:10.976Z,48.50
2019-03-22T11:58:41.032Z,45.90
2019-03-22T12:01:19.265Z,47.40
2019-03-22T12:03:42.911Z,45.50
2019-03-22T12:06:16.809Z,45.30
2019-03-22T12:08:46.505Z,46.70
2019-03-22T12:11:16.457Z,45.60
2019-03-22T12:16:26.580Z,44.90
2019-03-22T12:18:56.870Z,45.20
2019-03-22T12:21:26.662Z,45.90
2019-03-22T12:23:56.260Z,46.00
2019-03-22T12:26:25.917Z,44.20
2019-03-22T12:28:55.557Z,45.10
2019-03-22T12:31:25.269Z,43.50
2019-03-22T12:33:54.966Z,45.00
2019-03-22T12:36:24.633Z,43.90
2019-03-22T12:38:54.655Z,44.70
2019-03-22T12:41:24.392Z,43.00
2019-03-22T12:43:54.012Z,42.60
2019-03-22T12:46:23.674Z,43.10
2019-03-22T12:48:53.302Z,42.40
2019-03-22T12:51:22.978Z,41.60
2019-03-22T12:53:52.673Z,42.60
2019-03-22T12:56:22.326Z,42.10
2019-03-22T12:58:51.953Z,41.60
2019-03-22T13:01:21.612Z,40.30
2019-03-22T13:03:51.259Z,40.90
2019-03-22T13:06:20.912Z,37.60
2019-03-22T13:08:50.612Z,38.30
2019-03-22T13:11:20.326Z,38.80
2019-03-22T13:13:49.949Z,39.00
2019-03-22T13:16:19.609Z,40.20
2019-03-22T13:18:50.431Z,40.00
2019-03-22T13:21:20.181Z,38.90
2019-03-22T13:23:49.804Z,38.60
2019-03-22T13:26:19.456Z,39.60
2019-03-22T13:28:49.214Z,39.00
2019-03-22T13:31:18.865Z,40.00
2019-03-22T13:33:48.504Z,38.90
2019-03-22T13:36:18.155Z,39.30
2019-03-22T13:38:47.787Z,38.70
2019-03-22T13:41:17.459Z,38.60
2019-03-22T13:43:47.080Z,39.30
2019-03-22T13:46:17.222Z,39.00
2019-03-22T13:48:49.285Z,39.00
2019-03-22T13:51:18.954Z,40.40
2019-03-22T13:53:48.575Z,39.70
2019-03-22T13:56:18.220Z,39.00
2019-03-22T13:58:47.936Z,39.30
2019-03-22T14:01:19.341Z,38.90
2019-03-22T14:03:49.001Z,38.70
2019-03-22T14:06:19.126Z,39.60
2019-03-22T14:09:08.336Z,38.80
2019-03-22T14:11:38.074Z,38.30
2019-03-22T14:14:07.704Z,37.50
2019-03-22T14:16:37.368Z,39.20
2019-03-22T14:19:07.014Z,38.90
2019-03-22T14:21:44.414Z,39.50
2019-03-22T14:24:15.733Z,39.20
2019-03-22T14:26:58.751Z,38.90
2019-03-22T14:29:28.385Z,39.90
2019-03-22T14:31:58.049Z,38.90
2019-03-22T14:34:27.677Z,38.80
2019-03-22T14:36:59.153Z,39.40
2019-03-22T14:39:28.786Z,40.40
2019-03-22T14:41:58.438Z,41.70
2019-03-22T14:44:28.336Z,39.40
2019-03-22T14:46:58.197Z,39.40
2019-03-22T14:49:28.078Z,39.70
2019-03-22T14:51:57.740Z,40.10
2019-03-22T14:54:27.373Z,41.30
2019-03-22T14:56:57.301Z,42.00
2019-03-22T14:59:27.076Z,41.30
2019-03-22T15:01:56.732Z,41.90
2019-03-22T15:04:26.365Z,41.40
2019-03-22T15:06:56.025Z,40.90
2019-03-22T15:09:27.064Z,41.50
2019-03-22T15:11:56.785Z,42.60
2019-03-22T15:14:28.055Z,42.40
2019-03-22T15:17:05.090Z,42.00
2019-03-22T15:19:52.545Z,41.80
2019-03-22T15:22:36.207Z,41.40
2019-03-22T15:25:09.228Z,41.80
2019-03-22T15:27:56.732Z,44.30
2019-03-22T15:30:44.067Z,43.40
2019-03-22T15:33:34.651Z,43.20
2019-03-22T15:36:06.473Z,44.10
2019-03-22T15:38:37.893Z,43.80
2019-03-22T15:41:26.905Z,43.70
2019-03-22T15:43:56.592Z,44.20
2019-03-22T15:46:27.951Z,43.30
2019-03-22T15:48:58.989Z,44.80
2019-03-22T15:51:29.237Z,44.60
2019-03-22T15:54:00.604Z,45.60
2019-03-22T15:56:30.380Z,46.80
2019-03-22T15:59:00.723Z,47.20
2019-03-22T16:01:30.377Z,46.60
2019-03-22T16:04:00.038Z,48.90
2019-03-22T16:06:32.439Z,48.40
2019-03-22T16:09:02.144Z,48.30
2019-03-22T16:11:33.513Z,48.40
2019-03-22T16:14:03.709Z,50.30
2019-03-22T16:16:33.341Z,50.90
2019-03-22T16:19:02.997Z,52.80
2019-03-22T16:21:32.860Z,52.90
2019-03-22T16:24:02.604Z,54.40
2019-03-22T16:26:32.251Z,55.60
2019-03-22T16:29:01.901Z,56.60
2019-03-22T16:31:31.576Z,57.40
2019-03-22T16:34:01.254Z,59.00
2019-03-22T16:36:30.885Z,58.30
2019-03-22T16:39:00.695Z,58.90
2019-03-22T16:41:30.609Z,68.40
2019-03-22T16:44:00.264Z,70.70
2019-03-22T16:46:29.900Z,66.70
2019-03-22T16:48:59.564Z,68.20
2019-03-22T16:51:29.188Z,68.70
2019-03-22T16:53:59.766Z,71.90
2019-03-22T16:56:29.449Z,72.10
2019-03-22T16:58:59.108Z,67.50
2019-03-22T17:01:28.782Z,67.90
2019-03-22T17:04:04.416Z,79.70
2019-03-22T17:06:29.941Z,83.90
2019-03-22T17:09:00.417Z,79.60
2019-03-22T17:11:30.392Z,80.60
2019-03-22T17:14:00.528Z,80.70
2019-03-22T17:16:30.165Z,84.40
2019-03-22T17:18:59.832Z,85.60
2019-03-22T17:21:29.648Z,88.50
2019-03-22T17:23:59.304Z,89.00
2019-03-22T17:26:28.931Z,87.70
2019-03-22T17:28:58.593Z,87.20
2019-03-22T17:31:28.275Z,92.60
2019-03-22T17:33:57.943Z,94.30
2019-03-22T17:36:27.565Z,98.30
2019-03-22T17:38:57.229Z,96.80
2019-03-22T17:41:26.856Z,97.50
2019-03-22T17:43:56.521Z,99.60
2019-03-22T17:46:26.153Z,99.90
2019-03-22T17:48:55.808Z,99.90
2019-03-22T17:51:25.461Z,99.90
2019-03-22T17:53:55.114Z,99.90
2019-03-22T17:56:24.745Z,99.90
2019-03-22T17:58:54.396Z,99.90
2019-03-22T18:01:24.174Z,99.90
2019-03-22T18:03:53.829Z,99.90
2019-03-22T18:06:23.457Z,99.90
2019-03-22T18:08:53.112Z,99.90
2019-03-22T18:11:22.740Z,99.90
2019-03-22T18:13:52.404Z,99.90
2019-03-22T18:16:22.032Z,99.90
2019-03-22T18:18:51.724Z,99.90
2019-03-22T18:21:23.092Z,99.90
2019-03-22T18:23:52.716Z,99.90
2019-03-22T18:26:22.380Z,99.90
2019-03-22T18:28:51.999Z,99.90
2019-03-22T18:31:21.648Z,99.90
2019-03-22T18:33:51.368Z,99.90
2019-03-22T18:36:21.021Z,99.90
2019-03-22T18:38:50.648Z,99.90
2019-03-22T18:41:20.325Z,99.90
2019-03-22T18:43:49.944Z,99.90
2019-03-22T18:46:19.588Z,99.90
2019-03-22T18:48:49.212Z,99.90
2019-03-22T18:51:18.868Z,99.90
2019-03-22T18:53:48.493Z,99.90
2019-03-22T18:56:18.147Z,99.90
2019-03-22T18:58:47.772Z,99.90
2019-03-22T19:01:17.489Z,99.90
2019-03-22T19:03:47.114Z,99.90
2019-03-22T19:06:16.762Z,99.90
2019-03-22T19:08:46.393Z,99.90
2019-03-22T19:11:16.118Z,99.90
2019-03-22T19:13:45.736Z,99.90
2019-03-22T19:16:15.380Z,99.90
2019-03-22T19:18:44.997Z,99.90
2019-03-22T19:21:14.649Z,99.90
2019-03-22T19:23:44.274Z,99.90
2019-03-22T19:26:13.931Z,99.90
2019-03-22T19:28:43.552Z,99.90
2019-03-22T19:31:13.198Z,99.90
2019-03-22T19:33:42.820Z,99.90
2019-03-22T19:36:12.471Z,99.90
2019-03-22T19:38:42.121Z,99.90
2019-03-22T19:41:11.898Z,99.90
2019-03-22T19:43:41.531Z,99.90
2019-03-22T19:46:11.182Z,99.90
2019-03-22T19:48:40.794Z,99.90
2019-03-22T19:51:10.533Z,99.90
2019-03-22T19:53:40.144Z,99.90
2019-03-22T19:56:09.803Z,99.90
2019-03-22T19:58:39.424Z,99.90
2019-03-22T20:01:09.064Z,99.90
2019-03-22T20:03:38.698Z,99.90
2019-03-22T20:06:08.347Z,99.90
2019-03-22T20:08:37.972Z,99.90
2019-03-22T20:11:07.672Z,99.90
2019-03-22T20:13:37.297Z,99.90
2019-03-22T20:16:07.023Z,99.90
2019-03-22T20:18:36.650Z,99.90
2019-03-22T20:21:06.300Z,99.90
2019-03-22T20:23:35.920Z,99.90
2019-03-22T20:26:05.636Z,99.90
2019-03-22T20:28:35.262Z,99.90
2019-03-22T20:31:05.014Z,99.90
2019-03-22T20:33:34.637Z,99.90
2019-03-22T20:36:04.521Z,99.90
2019-03-22T20:38:34.160Z,99.90
2019-03-22T20:41:03.861Z,99.90
2019-03-22T20:43:33.838Z,99.90
2019-03-22T20:46:04.364Z,99.90
2019-03-22T20:48:34.153Z,99.90
2019-03-22T20:51:04.102Z,99.90
2019-03-22T20:53:33.730Z,99.90
2019-03-22T20:56:03.376Z,99.90
2019-03-22T20:58:33.011Z,99.90
2019-03-22T21:01:02.770Z,99.90
2019-03-22T21:03:32.511Z,99.90
2019-03-22T21:06:04.492Z,99.90
2019-03-22T21:08:33.575Z,99.90
2019-03-22T21:11:03.233Z,99.90
2019-03-22T21:13:33.628Z,99.90
2019-03-22T21:16:03.746Z,99.90
2019-03-22T21:18:33.454Z,99.90
2019-03-22T21:21:03.530Z,99.90
2019-03-22T21:23:36.508Z,99.90
2019-03-22T21:26:06.470Z,99.90
2019-03-22T21:28:57.209Z,99.90
2019-03-22T21:31:27.730Z,99.90
2019-03-22T21:33:57.359Z,99.90
2019-03-22T21:36:27.067Z,99.90
2019-03-22T21:38:57.573Z,99.90
2019-03-22T21:41:27.556Z,99.90
2019-03-22T21:43:57.791Z,99.90
2019-03-22T21:46:28.102Z,99.90
2019-03-22T21:48:58.089Z,99.90
2019-03-22T21:51:28.217Z,99.90
2019-03-22T21:53:57.857Z,99.90
2019-03-22T21:56:27.876Z,99.90
2019-03-22T21:58:57.672Z,99.90
2019-03-22T22:01:27.829Z,99.90
2019-03-22T22:03:57.689Z,99.90
2019-03-22T22:06:27.589Z,99.90
2019-03-22T22:08:57.286Z,99.90
2019-03-22T22:11:27.230Z,99.90
2019-03-22T22:13:56.845Z,99.90
2019-03-22T22:16:26.476Z,99.90
2019-03-22T22:18:56.120Z,99.90
2019-03-22T22:21:25.761Z,99.90
2019-03-22T22:23:55.409Z,99.90
2019-03-22T22:26:25.040Z,99.90
2019-03-22T22:28:54.752Z,99.90
2019-03-22T22:31:24.470Z,99.90
2019-03-22T22:33:54.414Z,99.90
2019-03-22T22:36:24.408Z,99.90
2019-03-22T22:38:54.066Z,99.90
2019-03-22T22:41:23.739Z,99.90
2019-03-22T22:43:53.385Z,99.90
2019-03-22T22:46:23.462Z,99.90
2019-03-22T22:48:54.155Z,99.90
2019-03-22T22:51:24.009Z,99.90
2019-03-22T22:53:53.809Z,99.90
2019-03-22T22:56:23.687Z,99.90
2019-03-22T22:58:53.557Z,99.90
2019-03-22T23:01:23.460Z,99.90
2019-03-22T23:03:55.920Z,99.90
2019-03-22T23:06:25.612Z,99.90
2019-03-22T23:08:55.278Z,99.90
2019-03-22T23:11:25.017Z,99.90
2019-03-22T23:13:54.804Z,99.90
2019-03-22T23:16:24.869Z,99.90
2019-03-22T23:18:54.885Z,99.90
2019-03-22T23:21:24.620Z,99.90
2019-03-22T23:23:54.291Z,99.90
2019-03-22T23:26:23.914Z,99.90
2019-03-22T23:28:53.557Z,99.90
2019-03-22T23:31:23.228Z,99.90
2019-03-22T23:33:52.877Z,99.90
2019-03-22T23:36:22.509Z,99.90
2019-03-22T23:38:52.149Z,99.90
2019-03-22T23:41:21.852Z,99.90
2019-03-22T23:43:51.510Z,99.90
2019-03-22T23:46:21.125Z,99.90
2019-03-22T23:48:50.799Z,99.90
2019-03-22T23:51:20.425Z,99.90
2019-03-22T23:53:50.081Z,99.90
2019-03-22T23:56:19.724Z,99.90
2019-03-22T23:58:49.348Z,99.90
